sensor_id;sensor_type;location;lat;lon;timestamp;P1;durP1;ratioP1;P2;durP2;ratioP2
3953;SDS011;1991;48.682;9.030;2022-10-13T00:00:33;22.37;;;14.57;;
3953;SDS011;1991;48.682;9.030;2022-10-13T00:02:59;24.57;;;16.07;;
3953;SDS011;1991;48.682;9.030;2022-10-13T00:05:25;26.93;;;16.20;;
3953;SDS011;1991;48.682;9.030;2022-10-13T00:07:52;20.63;;;14.43;;
3953;SDS011;1991;48.682;9.030;2022-10-13T00:10:17;27.83;;;17.23;;
3953;SDS011;1991;48.682;9.030;2022-10-13T00:12:43;25.57;;;16.63;;
3953;SDS011;1991;48.682;9.030;2022-10-13T00:15:09;30.43;;;17.27;;
3953;SDS011;1991;48.682;9.030;2022-10-13T00:17:36;27.93;;;17.13;;
3953;SDS011;1991;48.682;9.030;2022-10-13T00:20:02;24.90;;;17.70;;
3953;SDS011;1991;48.682;9.030;2022-10-13T00:22:30;29.17;;;18.07;;
3953;SDS011;1991;48.682;9.030;2022-10-13T00:24:56;25.93;;;17.07;;
3953;SDS011;1991;48.682;9.030;2022-10-13T00:27:22;31.83;;;18.30;;
3953;SDS011;1991;48.682;9.030;2022-10-13T00:29:48;27.33;;;17.23;;
3953;SDS011;1991;48.682;9.030;2022-10-13T00:32:13;26.10;;;17.80;;
3953;SDS011;1991;48.682;9.030;2022-10-13T00:34:39;25.67;;;17.50;;
3953;SDS011;1991;48.682;9.030;2022-10-13T00:37:04;30.20;;;17.73;;
3953;SDS011;1991;48.682;9.030;2022-10-13T00:39:30;27.90;;;17.50;;
3953;SDS011;1991;48.682;9.030;2022-10-13T00:41:57;28.43;;;17.73;;
3953;SDS011;1991;48.682;9.030;2022-10-13T00:47:16;28.93;;;18.27;;
3953;SDS011;1991;48.682;9.030;2022-10-13T00:49:43;27.73;;;17.83;;
3953;SDS011;1991;48.682;9.030;2022-10-13T00:52:09;32.60;;;17.80;;
3953;SDS011;1991;48.682;9.030;2022-10-13T00:54:35;28.23;;;17.03;;
3953;SDS011;1991;48.682;9.030;2022-10-13T00:57:01;28.73;;;17.80;;
3953;SDS011;1991;48.682;9.030;2022-10-13T00:59:28;28.20;;;17.80;;
3953;SDS011;1991;48.682;9.030;2022-10-13T01:01:54;35.20;;;18.27;;
3953;SDS011;1991;48.682;9.030;2022-10-13T01:04:22;28.80;;;18.27;;
3953;SDS011;1991;48.682;9.030;2022-10-13T01:06:51;26.33;;;16.63;;
3953;SDS011;1991;48.682;9.030;2022-10-13T01:09:17;26.50;;;17.00;;
3953;SDS011;1991;48.682;9.030;2022-10-13T01:14:43;30.47;;;17.50;;
3953;SDS011;1991;48.682;9.030;2022-10-13T01:22:51;26.90;;;17.20;;
3953;SDS011;1991;48.682;9.030;2022-10-13T01:25:38;25.70;;;17.20;;
3953;SDS011;1991;48.682;9.030;2022-10-13T01:31:19;28.07;;;16.50;;
3953;SDS011;1991;48.682;9.030;2022-10-13T01:36:46;31.63;;;16.17;;
3953;SDS011;1991;48.682;9.030;2022-10-13T01:39:18;26.10;;;16.80;;
3953;SDS011;1991;48.682;9.030;2022-10-13T01:41:53;29.83;;;17.07;;
3953;SDS011;1991;48.682;9.030;2022-10-13T01:44:30;28.73;;;17.43;;
3953;SDS011;1991;48.682;9.030;2022-10-13T01:47:00;26.97;;;16.90;;
3953;SDS011;1991;48.682;9.030;2022-10-13T01:49:29;30.57;;;17.90;;
3953;SDS011;1991;48.682;9.030;2022-10-13T01:52:02;29.43;;;18.17;;
3953;SDS011;1991;48.682;9.030;2022-10-13T01:54:31;27.83;;;19.13;;
3953;SDS011;1991;48.682;9.030;2022-10-13T01:56:57;25.83;;;17.17;;
3953;SDS011;1991;48.682;9.030;2022-10-13T01:59:23;32.17;;;19.27;;
3953;SDS011;1991;48.682;9.030;2022-10-13T02:02:25;32.77;;;18.23;;
3953;SDS011;1991;48.682;9.030;2022-10-13T02:07:27;29.73;;;19.43;;
3953;SDS011;1991;48.682;9.030;2022-10-13T02:10:01;33.53;;;19.07;;
3953;SDS011;1991;48.682;9.030;2022-10-13T02:12:33;31.50;;;19.90;;
3953;SDS011;1991;48.682;9.030;2022-10-13T02:15:06;33.53;;;19.50;;
3953;SDS011;1991;48.682;9.030;2022-10-13T02:17:35;30.87;;;19.73;;
3953;SDS011;1991;48.682;9.030;2022-10-13T02:20:00;35.20;;;19.63;;
3953;SDS011;1991;48.682;9.030;2022-10-13T02:22:31;31.23;;;20.10;;
3953;SDS011;1991;48.682;9.030;2022-10-13T02:25:00;30.20;;;20.47;;
3953;SDS011;1991;48.682;9.030;2022-10-13T02:27:26;32.97;;;19.97;;
3953;SDS011;1991;48.682;9.030;2022-10-13T02:29:54;32.23;;;19.83;;
3953;SDS011;1991;48.682;9.030;2022-10-13T02:32:21;36.33;;;19.10;;
3953;SDS011;1991;48.682;9.030;2022-10-13T02:34:47;32.23;;;18.53;;
3953;SDS011;1991;48.682;9.030;2022-10-13T02:37:13;29.90;;;17.97;;
3953;SDS011;1991;48.682;9.030;2022-10-13T02:39:38;31.00;;;18.37;;
3953;SDS011;1991;48.682;9.030;2022-10-13T02:42:04;27.77;;;18.37;;
3953;SDS011;1991;48.682;9.030;2022-10-13T02:44:30;30.10;;;18.90;;
3953;SDS011;1991;48.682;9.030;2022-10-13T02:46:56;29.73;;;18.87;;
3953;SDS011;1991;48.682;9.030;2022-10-13T02:49:21;27.80;;;18.00;;
3953;SDS011;1991;48.682;9.030;2022-10-13T02:51:47;32.83;;;19.13;;
3953;SDS011;1991;48.682;9.030;2022-10-13T02:54:12;32.83;;;19.10;;
3953;SDS011;1991;48.682;9.030;2022-10-13T02:56:38;28.33;;;18.23;;
3953;SDS011;1991;48.682;9.030;2022-10-13T02:59:03;27.87;;;17.73;;
3953;SDS011;1991;48.682;9.030;2022-10-13T03:01:29;27.07;;;18.33;;
3953;SDS011;1991;48.682;9.030;2022-10-13T03:03:55;27.87;;;18.00;;
3953;SDS011;1991;48.682;9.030;2022-10-13T03:06:20;29.87;;;18.13;;
3953;SDS011;1991;48.682;9.030;2022-10-13T03:08:46;26.80;;;17.27;;
3953;SDS011;1991;48.682;9.030;2022-10-13T03:11:12;25.77;;;17.73;;
3953;SDS011;1991;48.682;9.030;2022-10-13T03:13:37;27.33;;;17.23;;
3953;SDS011;1991;48.682;9.030;2022-10-13T03:16:03;27.50;;;16.50;;
3953;SDS011;1991;48.682;9.030;2022-10-13T03:18:29;26.63;;;16.27;;
3953;SDS011;1991;48.682;9.030;2022-10-13T03:20:55;30.10;;;16.30;;
3953;SDS011;1991;48.682;9.030;2022-10-13T03:23:24;27.93;;;16.70;;
3953;SDS011;1991;48.682;9.030;2022-10-13T03:25:50;29.40;;;16.83;;
3953;SDS011;1991;48.682;9.030;2022-10-13T03:28:16;25.20;;;16.03;;
3953;SDS011;1991;48.682;9.030;2022-10-13T03:30:41;30.73;;;15.63;;
3953;SDS011;1991;48.682;9.030;2022-10-13T03:33:07;29.23;;;16.63;;
3953;SDS011;1991;48.682;9.030;2022-10-13T03:35:32;26.43;;;16.30;;
3953;SDS011;1991;48.682;9.030;2022-10-13T03:37:58;27.87;;;17.00;;
3953;SDS011;1991;48.682;9.030;2022-10-13T03:40:23;27.17;;;16.27;;
3953;SDS011;1991;48.682;9.030;2022-10-13T03:42:49;26.63;;;15.83;;
3953;SDS011;1991;48.682;9.030;2022-10-13T03:45:15;26.23;;;16.83;;
3953;SDS011;1991;48.682;9.030;2022-10-13T03:47:40;30.87;;;17.27;;
3953;SDS011;1991;48.682;9.030;2022-10-13T03:50:06;25.37;;;16.93;;
3953;SDS011;1991;48.682;9.030;2022-10-13T03:52:32;28.13;;;16.97;;
3953;SDS011;1991;48.682;9.030;2022-10-13T03:54:57;27.80;;;15.67;;
3953;SDS011;1991;48.682;9.030;2022-10-13T03:57:23;22.67;;;16.57;;
3953;SDS011;1991;48.682;9.030;2022-10-13T03:59:49;26.40;;;16.07;;
3953;SDS011;1991;48.682;9.030;2022-10-13T04:02:14;22.67;;;14.80;;
3953;SDS011;1991;48.682;9.030;2022-10-13T04:04:40;26.60;;;16.10;;
3953;SDS011;1991;48.682;9.030;2022-10-13T04:07:06;25.67;;;16.17;;
3953;SDS011;1991;48.682;9.030;2022-10-13T04:09:32;26.30;;;15.60;;
3953;SDS011;1991;48.682;9.030;2022-10-13T04:11:58;27.10;;;15.67;;
3953;SDS011;1991;48.682;9.030;2022-10-13T04:14:24;26.40;;;14.97;;
3953;SDS011;1991;48.682;9.030;2022-10-13T04:16:50;26.90;;;15.40;;
3953;SDS011;1991;48.682;9.030;2022-10-13T04:19:16;27.53;;;14.97;;
3953;SDS011;1991;48.682;9.030;2022-10-13T04:21:42;26.17;;;15.53;;
3953;SDS011;1991;48.682;9.030;2022-10-13T04:24:09;21.90;;;15.00;;
3953;SDS011;1991;48.682;9.030;2022-10-13T04:26:36;29.53;;;14.43;;
3953;SDS011;1991;48.682;9.030;2022-10-13T04:29:03;33.50;;;16.10;;
3953;SDS011;1991;48.682;9.030;2022-10-13T04:31:29;21.33;;;15.50;;
3953;SDS011;1991;48.682;9.030;2022-10-13T04:33:55;29.17;;;15.47;;
3953;SDS011;1991;48.682;9.030;2022-10-13T04:36:22;23.50;;;15.80;;
3953;SDS011;1991;48.682;9.030;2022-10-13T04:38:48;31.13;;;16.37;;
3953;SDS011;1991;48.682;9.030;2022-10-13T04:41:15;25.33;;;15.63;;
3953;SDS011;1991;48.682;9.030;2022-10-13T04:43:41;24.57;;;16.00;;
3953;SDS011;1991;48.682;9.030;2022-10-13T04:46:14;31.23;;;16.80;;
3953;SDS011;1991;48.682;9.030;2022-10-13T04:48:44;28.93;;;16.87;;
3953;SDS011;1991;48.682;9.030;2022-10-13T04:51:11;27.53;;;16.47;;
3953;SDS011;1991;48.682;9.030;2022-10-13T04:53:39;27.20;;;16.50;;
3953;SDS011;1991;48.682;9.030;2022-10-13T04:56:07;27.57;;;17.20;;
3953;SDS011;1991;48.682;9.030;2022-10-13T04:58:35;34.60;;;17.70;;
3953;SDS011;1991;48.682;9.030;2022-10-13T05:01:03;31.40;;;17.97;;
3953;SDS011;1991;48.682;9.030;2022-10-13T05:03:30;28.80;;;17.80;;
3953;SDS011;1991;48.682;9.030;2022-10-13T05:05:56;33.60;;;17.50;;
3953;SDS011;1991;48.682;9.030;2022-10-13T05:08:21;31.03;;;18.07;;
3953;SDS011;1991;48.682;9.030;2022-10-13T05:13:20;31.70;;;17.90;;
3953;SDS011;1991;48.682;9.030;2022-10-13T05:15:45;31.33;;;18.00;;
3953;SDS011;1991;48.682;9.030;2022-10-13T05:18:11;29.07;;;18.33;;
3953;SDS011;1991;48.682;9.030;2022-10-13T05:20:37;31.87;;;18.63;;
3953;SDS011;1991;48.682;9.030;2022-10-13T05:23:02;31.03;;;18.73;;
3953;SDS011;1991;48.682;9.030;2022-10-13T05:25:28;34.67;;;18.57;;
3953;SDS011;1991;48.682;9.030;2022-10-13T05:27:53;30.33;;;16.93;;
3953;SDS011;1991;48.682;9.030;2022-10-13T05:30:19;33.50;;;17.47;;
3953;SDS011;1991;48.682;9.030;2022-10-13T05:32:45;29.03;;;19.13;;
3953;SDS011;1991;48.682;9.030;2022-10-13T05:35:10;32.13;;;18.73;;
3953;SDS011;1991;48.682;9.030;2022-10-13T05:37:36;27.80;;;18.20;;
3953;SDS011;1991;48.682;9.030;2022-10-13T05:40:01;32.47;;;17.83;;
3953;SDS011;1991;48.682;9.030;2022-10-13T05:42:27;28.73;;;17.53;;
3953;SDS011;1991;48.682;9.030;2022-10-13T05:44:54;32.20;;;17.77;;
3953;SDS011;1991;48.682;9.030;2022-10-13T05:47:20;30.77;;;18.50;;
3953;SDS011;1991;48.682;9.030;2022-10-13T05:49:50;29.43;;;17.57;;
3953;SDS011;1991;48.682;9.030;2022-10-13T05:52:16;30.67;;;16.80;;
3953;SDS011;1991;48.682;9.030;2022-10-13T05:54:43;28.57;;;18.00;;
3953;SDS011;1991;48.682;9.030;2022-10-13T05:57:32;34.57;;;18.07;;
3953;SDS011;1991;48.682;9.030;2022-10-13T06:00:02;28.57;;;18.03;;
3953;SDS011;1991;48.682;9.030;2022-10-13T06:02:38;29.80;;;18.13;;
3953;SDS011;1991;48.682;9.030;2022-10-13T06:05:13;30.00;;;16.97;;
3953;SDS011;1991;48.682;9.030;2022-10-13T06:07:41;28.27;;;17.07;;
3953;SDS011;1991;48.682;9.030;2022-10-13T06:10:08;27.63;;;16.00;;
3953;SDS011;1991;48.682;9.030;2022-10-13T06:12:35;26.40;;;16.27;;
3953;SDS011;1991;48.682;9.030;2022-10-13T06:15:01;28.27;;;16.33;;
3953;SDS011;1991;48.682;9.030;2022-10-13T06:17:26;29.47;;;15.67;;
3953;SDS011;1991;48.682;9.030;2022-10-13T06:19:52;29.83;;;16.40;;
3953;SDS011;1991;48.682;9.030;2022-10-13T06:22:17;25.77;;;15.97;;
3953;SDS011;1991;48.682;9.030;2022-10-13T06:24:43;23.73;;;15.23;;
3953;SDS011;1991;48.682;9.030;2022-10-13T06:27:09;24.83;;;14.73;;
3953;SDS011;1991;48.682;9.030;2022-10-13T06:29:35;26.97;;;15.10;;
3953;SDS011;1991;48.682;9.030;2022-10-13T06:32:01;24.30;;;14.33;;
3953;SDS011;1991;48.682;9.030;2022-10-13T06:34:26;21.13;;;14.33;;
3953;SDS011;1991;48.682;9.030;2022-10-13T06:36:52;24.30;;;13.93;;
3953;SDS011;1991;48.682;9.030;2022-10-13T06:39:17;25.70;;;15.57;;
3953;SDS011;1991;48.682;9.030;2022-10-13T06:41:43;21.97;;;13.43;;
3953;SDS011;1991;48.682;9.030;2022-10-13T06:44:09;24.57;;;14.17;;
3953;SDS011;1991;48.682;9.030;2022-10-13T06:46:35;20.93;;;13.43;;
3953;SDS011;1991;48.682;9.030;2022-10-13T06:49:00;27.73;;;14.27;;
3953;SDS011;1991;48.682;9.030;2022-10-13T06:51:26;20.07;;;13.70;;
3953;SDS011;1991;48.682;9.030;2022-10-13T06:53:54;22.07;;;12.67;;
3953;SDS011;1991;48.682;9.030;2022-10-13T06:56:20;26.88;;;13.70;;
3953;SDS011;1991;48.682;9.030;2022-10-13T06:58:46;21.67;;;13.20;;
3953;SDS011;1991;48.682;9.030;2022-10-13T07:01:12;22.08;;;13.02;;
3953;SDS011;1991;48.682;9.030;2022-10-13T07:03:37;25.55;;;13.48;;
3953;SDS011;1991;48.682;9.030;2022-10-13T07:06:04;18.98;;;12.77;;
3953;SDS011;1991;48.682;9.030;2022-10-13T07:08:30;20.77;;;12.60;;
3953;SDS011;1991;48.682;9.030;2022-10-13T07:10:58;23.10;;;12.57;;
3953;SDS011;1991;48.682;9.030;2022-10-13T07:13:23;20.83;;;12.75;;
3953;SDS011;1991;48.682;9.030;2022-10-13T07:15:49;22.40;;;12.98;;
3953;SDS011;1991;48.682;9.030;2022-10-13T07:18:15;25.98;;;13.23;;
3953;SDS011;1991;48.682;9.030;2022-10-13T07:20:40;18.73;;;12.07;;
3953;SDS011;1991;48.682;9.030;2022-10-13T07:23:06;17.90;;;12.20;;
3953;SDS011;1991;48.682;9.030;2022-10-13T07:25:31;21.15;;;12.95;;
3953;SDS011;1991;48.682;9.030;2022-10-13T07:27:58;18.30;;;12.48;;
3953;SDS011;1991;48.682;9.030;2022-10-13T07:30:24;18.40;;;12.57;;
3953;SDS011;1991;48.682;9.030;2022-10-13T07:32:50;21.05;;;13.38;;
3953;SDS011;1991;48.682;9.030;2022-10-13T07:35:15;21.70;;;12.27;;
3953;SDS011;1991;48.682;9.030;2022-10-13T07:37:41;17.63;;;10.93;;
3953;SDS011;1991;48.682;9.030;2022-10-13T07:40:07;22.60;;;11.73;;
3953;SDS011;1991;48.682;9.030;2022-10-13T07:42:33;24.52;;;12.05;;
3953;SDS011;1991;48.682;9.030;2022-10-13T07:44:58;15.50;;;12.40;;
3953;SDS011;1991;48.682;9.030;2022-10-13T07:47:24;19.23;;;11.98;;
3953;SDS011;1991;48.682;9.030;2022-10-13T07:49:50;21.65;;;11.93;;
3953;SDS011;1991;48.682;9.030;2022-10-13T07:52:15;22.30;;;11.48;;
3953;SDS011;1991;48.682;9.030;2022-10-13T07:54:41;18.63;;;11.63;;
3953;SDS011;1991;48.682;9.030;2022-10-13T07:57:07;20.75;;;11.70;;
3953;SDS011;1991;48.682;9.030;2022-10-13T07:59:33;19.10;;;11.45;;
3953;SDS011;1991;48.682;9.030;2022-10-13T08:01:59;23.88;;;12.30;;
3953;SDS011;1991;48.682;9.030;2022-10-13T08:04:32;16.75;;;11.55;;
3953;SDS011;1991;48.682;9.030;2022-10-13T08:07:00;20.13;;;10.95;;
3953;SDS011;1991;48.682;9.030;2022-10-13T08:09:26;16.77;;;10.23;;
3953;SDS011;1991;48.682;9.030;2022-10-13T08:11:52;17.65;;;10.85;;
3953;SDS011;1991;48.682;9.030;2022-10-13T08:14:17;17.50;;;10.10;;
3953;SDS011;1991;48.682;9.030;2022-10-13T08:16:44;15.27;;;9.68;;
3953;SDS011;1991;48.682;9.030;2022-10-13T08:19:14;13.60;;;9.60;;
3953;SDS011;1991;48.682;9.030;2022-10-13T08:21:41;16.05;;;9.95;;
3953;SDS011;1991;48.682;9.030;2022-10-13T08:24:11;17.77;;;10.10;;
3953;SDS011;1991;48.682;9.030;2022-10-13T08:26:38;14.05;;;8.63;;
3953;SDS011;1991;48.682;9.030;2022-10-13T08:29:04;15.77;;;9.60;;
3953;SDS011;1991;48.682;9.030;2022-10-13T08:31:30;14.40;;;9.75;;
3953;SDS011;1991;48.682;9.030;2022-10-13T08:33:55;18.60;;;8.63;;
3953;SDS011;1991;48.682;9.030;2022-10-13T08:36:21;14.45;;;8.75;;
3953;SDS011;1991;48.682;9.030;2022-10-13T08:38:47;15.77;;;8.75;;
3953;SDS011;1991;48.682;9.030;2022-10-13T08:41:17;14.57;;;7.95;;
3953;SDS011;1991;48.682;9.030;2022-10-13T08:43:44;15.40;;;8.85;;
3953;SDS011;1991;48.682;9.030;2022-10-13T08:46:14;15.57;;;8.00;;
3953;SDS011;1991;48.682;9.030;2022-10-13T08:48:48;12.05;;;7.70;;
3953;SDS011;1991;48.682;9.030;2022-10-13T08:51:14;11.43;;;7.35;;
3953;SDS011;1991;48.682;9.030;2022-10-13T08:53:41;15.57;;;7.93;;
3953;SDS011;1991;48.682;9.030;2022-10-13T08:58:51;13.88;;;8.13;;
3953;SDS011;1991;48.682;9.030;2022-10-13T09:01:22;12.05;;;8.02;;
3953;SDS011;1991;48.682;9.030;2022-10-13T09:03:50;13.98;;;7.85;;
3953;SDS011;1991;48.682;9.030;2022-10-13T09:06:40;14.65;;;7.97;;
3953;SDS011;1991;48.682;9.030;2022-10-13T09:09:10;12.52;;;8.07;;
3953;SDS011;1991;48.682;9.030;2022-10-13T09:11:39;16.45;;;7.65;;
3953;SDS011;1991;48.682;9.030;2022-10-13T09:14:08;12.20;;;8.23;;
3953;SDS011;1991;48.682;9.030;2022-10-13T09:16:36;11.63;;;8.35;;
3953;SDS011;1991;48.682;9.030;2022-10-13T09:21:54;14.55;;;8.25;;
3953;SDS011;1991;48.682;9.030;2022-10-13T09:24:23;11.05;;;7.97;;
3953;SDS011;1991;48.682;9.030;2022-10-13T09:27:02;14.00;;;7.85;;
3953;SDS011;1991;48.682;9.030;2022-10-13T09:29:37;13.70;;;7.97;;
3953;SDS011;1991;48.682;9.030;2022-10-13T09:34:39;13.10;;;7.82;;
3953;SDS011;1991;48.682;9.030;2022-10-13T09:37:08;14.60;;;8.15;;
3953;SDS011;1991;48.682;9.030;2022-10-13T09:39:44;13.38;;;8.23;;
3953;SDS011;1991;48.682;9.030;2022-10-13T09:42:18;13.30;;;7.60;;
3953;SDS011;1991;48.682;9.030;2022-10-13T09:44:54;12.85;;;8.25;;
3953;SDS011;1991;48.682;9.030;2022-10-13T09:47:37;15.43;;;8.02;;
3953;SDS011;1991;48.682;9.030;2022-10-13T09:50:13;12.35;;;8.82;;
3953;SDS011;1991;48.682;9.030;2022-10-13T09:52:41;13.07;;;8.75;;
3953;SDS011;1991;48.682;9.030;2022-10-13T09:58:20;15.32;;;9.30;;
3953;SDS011;1991;48.682;9.030;2022-10-13T10:00:50;13.48;;;8.68;;
3953;SDS011;1991;48.682;9.030;2022-10-13T10:05:56;18.00;;;9.60;;
3953;SDS011;1991;48.682;9.030;2022-10-13T10:08:38;18.42;;;9.32;;
3953;SDS011;1991;48.682;9.030;2022-10-13T10:11:11;13.57;;;9.48;;
3953;SDS011;1991;48.682;9.030;2022-10-13T10:13:39;13.63;;;8.85;;
3953;SDS011;1991;48.682;9.030;2022-10-13T10:16:06;15.40;;;8.98;;
3953;SDS011;1991;48.682;9.030;2022-10-13T10:27:48;13.80;;;8.85;;
3953;SDS011;1991;48.682;9.030;2022-10-13T10:32:55;13.73;;;9.68;;
3953;SDS011;1991;48.682;9.030;2022-10-13T10:40:31;14.93;;;9.07;;
3953;SDS011;1991;48.682;9.030;2022-10-13T10:45:59;13.88;;;8.65;;
3953;SDS011;1991;48.682;9.030;2022-10-13T10:48:35;17.85;;;8.55;;
3953;SDS011;1991;48.682;9.030;2022-10-13T10:51:05;13.15;;;8.20;;
3953;SDS011;1991;48.682;9.030;2022-10-13T10:56:23;14.60;;;8.15;;
3953;SDS011;1991;48.682;9.030;2022-10-13T10:59:06;16.55;;;7.63;;
3953;SDS011;1991;48.682;9.030;2022-10-13T11:01:59;14.00;;;7.82;;
3953;SDS011;1991;48.682;9.030;2022-10-13T11:04:42;13.05;;;7.30;;
3953;SDS011;1991;48.682;9.030;2022-10-13T11:17:28;12.77;;;7.80;;
3953;SDS011;1991;48.682;9.030;2022-10-13T11:19:54;12.57;;;8.23;;
3953;SDS011;1991;48.682;9.030;2022-10-13T11:22:29;16.63;;;7.68;;
3953;SDS011;1991;48.682;9.030;2022-10-13T11:24:56;14.45;;;7.82;;
3953;SDS011;1991;48.682;9.030;2022-10-13T11:27:27;10.98;;;7.95;;
3953;SDS011;1991;48.682;9.030;2022-10-13T11:29:54;15.02;;;7.60;;
3953;SDS011;1991;48.682;9.030;2022-10-13T11:35:16;15.23;;;8.18;;
3953;SDS011;1991;48.682;9.030;2022-10-13T11:48:06;8.90;;;7.05;;
3953;SDS011;1991;48.682;9.030;2022-10-13T12:04:34;14.90;;;7.68;;
3953;SDS011;1991;48.682;9.030;2022-10-13T12:07:01;24.20;;;9.73;;
3953;SDS011;1991;48.682;9.030;2022-10-13T12:09:29;30.60;;;10.50;;
3953;SDS011;1991;48.682;9.030;2022-10-13T12:12:03;16.67;;;8.23;;
3953;SDS011;1991;48.682;9.030;2022-10-13T12:14:37;17.60;;;8.10;;
3953;SDS011;1991;48.682;9.030;2022-10-13T12:17:18;17.70;;;7.35;;
3953;SDS011;1991;48.682;9.030;2022-10-13T12:19:54;11.90;;;7.35;;
3953;SDS011;1991;48.682;9.030;2022-10-13T12:22:22;12.10;;;6.25;;
3953;SDS011;1991;48.682;9.030;2022-10-13T12:25:00;8.98;;;6.22;;
3953;SDS011;1991;48.682;9.030;2022-10-13T12:27:31;10.70;;;6.60;;
3953;SDS011;1991;48.682;9.030;2022-10-13T12:30:18;14.75;;;7.20;;
3953;SDS011;1991;48.682;9.030;2022-10-13T12:33:18;11.30;;;6.25;;
3953;SDS011;1991;48.682;9.030;2022-10-13T12:35:49;9.35;;;5.50;;
3953;SDS011;1991;48.682;9.030;2022-10-13T12:38:18;10.43;;;5.63;;
3953;SDS011;1991;48.682;9.030;2022-10-13T12:40:48;7.32;;;5.32;;
3953;SDS011;1991;48.682;9.030;2022-10-13T12:43:18;8.05;;;4.88;;
3953;SDS011;1991;48.682;9.030;2022-10-13T12:45:46;13.43;;;5.32;;
3953;SDS011;1991;48.682;9.030;2022-10-13T12:48:32;14.05;;;5.05;;
3953;SDS011;1991;48.682;9.030;2022-10-13T12:51:34;10.02;;;4.82;;
3953;SDS011;1991;48.682;9.030;2022-10-13T12:53:52;7.30;;;4.10;;
3953;SDS011;1991;48.682;9.030;2022-10-13T12:56:24;12.18;;;5.53;;
3953;SDS011;1991;48.682;9.030;2022-10-13T12:58:54;8.98;;;4.68;;
3953;SDS011;1991;48.682;9.030;2022-10-13T13:01:28;13.32;;;5.03;;
3953;SDS011;1991;48.682;9.030;2022-10-13T13:04:00;9.02;;;5.22;;
3953;SDS011;1991;48.682;9.030;2022-10-13T13:06:40;12.23;;;5.78;;
3953;SDS011;1991;48.682;9.030;2022-10-13T13:09:19;10.27;;;5.38;;
3953;SDS011;1991;48.682;9.030;2022-10-13T13:11:46;14.02;;;5.47;;
3953;SDS011;1991;48.682;9.030;2022-10-13T13:17:05;17.67;;;6.63;;
3953;SDS011;1991;48.682;9.030;2022-10-13T13:19:39;13.10;;;6.28;;
3953;SDS011;1991;48.682;9.030;2022-10-13T13:22:06;14.02;;;6.20;;
3953;SDS011;1991;48.682;9.030;2022-10-13T13:24:32;16.73;;;6.60;;
3953;SDS011;1991;48.682;9.030;2022-10-13T13:26:58;11.57;;;5.35;;
3953;SDS011;1991;48.682;9.030;2022-10-13T13:29:29;10.85;;;5.28;;
3953;SDS011;1991;48.682;9.030;2022-10-13T13:31:54;12.25;;;5.80;;
3953;SDS011;1991;48.682;9.030;2022-10-13T13:34:20;10.27;;;5.35;;
3953;SDS011;1991;48.682;9.030;2022-10-13T13:36:46;14.55;;;6.28;;
3953;SDS011;1991;48.682;9.030;2022-10-13T13:39:14;9.65;;;4.93;;
3953;SDS011;1991;48.682;9.030;2022-10-13T13:41:42;10.75;;;6.10;;
3953;SDS011;1991;48.682;9.030;2022-10-13T13:44:07;10.25;;;5.53;;
3953;SDS011;1991;48.682;9.030;2022-10-13T13:46:33;9.55;;;5.78;;
3953;SDS011;1991;48.682;9.030;2022-10-13T13:49:00;13.98;;;6.00;;
3953;SDS011;1991;48.682;9.030;2022-10-13T13:51:26;9.15;;;5.45;;
3953;SDS011;1991;48.682;9.030;2022-10-13T13:53:52;12.18;;;5.63;;
3953;SDS011;1991;48.682;9.030;2022-10-13T13:56:18;10.05;;;5.55;;
3953;SDS011;1991;48.682;9.030;2022-10-13T13:58:44;11.60;;;5.47;;
3953;SDS011;1991;48.682;9.030;2022-10-13T14:01:10;12.65;;;5.00;;
3953;SDS011;1991;48.682;9.030;2022-10-13T14:03:37;19.48;;;5.60;;
3953;SDS011;1991;48.682;9.030;2022-10-13T14:06:04;9.43;;;4.97;;
3953;SDS011;1991;48.682;9.030;2022-10-13T14:08:34;10.48;;;4.90;;
3953;SDS011;1991;48.682;9.030;2022-10-13T14:11:05;10.65;;;5.25;;
3953;SDS011;1991;48.682;9.030;2022-10-13T14:13:32;9.18;;;5.45;;
3953;SDS011;1991;48.682;9.030;2022-10-13T14:15:58;9.10;;;4.88;;
3953;SDS011;1991;48.682;9.030;2022-10-13T14:18:25;8.05;;;4.70;;
3953;SDS011;1991;48.682;9.030;2022-10-13T14:20:51;9.10;;;4.45;;
3953;SDS011;1991;48.682;9.030;2022-10-13T14:23:16;11.45;;;4.38;;
3953;SDS011;1991;48.682;9.030;2022-10-13T14:25:42;7.32;;;4.03;;
3953;SDS011;1991;48.682;9.030;2022-10-13T14:28:08;13.80;;;4.57;;
3953;SDS011;1991;48.682;9.030;2022-10-13T14:30:34;9.57;;;4.90;;
3953;SDS011;1991;48.682;9.030;2022-10-13T14:33:02;10.65;;;3.88;;
3953;SDS011;1991;48.682;9.030;2022-10-13T14:35:28;12.80;;;4.63;;
3953;SDS011;1991;48.682;9.030;2022-10-13T14:37:54;7.47;;;3.97;;
3953;SDS011;1991;48.682;9.030;2022-10-13T14:40:20;8.80;;;4.18;;
3953;SDS011;1991;48.682;9.030;2022-10-13T14:42:45;8.18;;;4.72;;
3953;SDS011;1991;48.682;9.030;2022-10-13T14:45:11;10.18;;;3.90;;
3953;SDS011;1991;48.682;9.030;2022-10-13T14:47:37;8.73;;;3.88;;
3953;SDS011;1991;48.682;9.030;2022-10-13T14:50:03;7.63;;;4.20;;
3953;SDS011;1991;48.682;9.030;2022-10-13T14:52:29;8.82;;;4.25;;
3953;SDS011;1991;48.682;9.030;2022-10-13T14:54:54;6.93;;;3.95;;
3953;SDS011;1991;48.682;9.030;2022-10-13T14:57:20;9.63;;;3.78;;
3953;SDS011;1991;48.682;9.030;2022-10-13T14:59:46;7.95;;;3.53;;
3953;SDS011;1991;48.682;9.030;2022-10-13T15:02:12;6.75;;;3.50;;
3953;SDS011;1991;48.682;9.030;2022-10-13T15:04:38;13.00;;;4.38;;
3953;SDS011;1991;48.682;9.030;2022-10-13T15:07:03;8.65;;;4.57;;
3953;SDS011;1991;48.682;9.030;2022-10-13T15:09:29;12.73;;;4.75;;
3953;SDS011;1991;48.682;9.030;2022-10-13T15:11:55;9.30;;;5.05;;
3953;SDS011;1991;48.682;9.030;2022-10-13T15:14:21;9.30;;;4.78;;
3953;SDS011;1991;48.682;9.030;2022-10-13T15:16:47;8.10;;;4.75;;
3953;SDS011;1991;48.682;9.030;2022-10-13T15:19:13;8.32;;;4.65;;
3953;SDS011;1991;48.682;9.030;2022-10-13T15:21:39;10.65;;;5.70;;
3953;SDS011;1991;48.682;9.030;2022-10-13T15:24:04;10.05;;;5.03;;
3953;SDS011;1991;48.682;9.030;2022-10-13T15:26:30;8.60;;;4.93;;
3953;SDS011;1991;48.682;9.030;2022-10-13T15:28:56;7.88;;;5.43;;
3953;SDS011;1991;48.682;9.030;2022-10-13T15:31:22;16.20;;;5.70;;
3953;SDS011;1991;48.682;9.030;2022-10-13T15:33:49;7.38;;;5.03;;
3953;SDS011;1991;48.682;9.030;2022-10-13T15:36:16;8.25;;;5.55;;
3953;SDS011;1991;48.682;9.030;2022-10-13T15:38:42;9.10;;;5.15;;
3953;SDS011;1991;48.682;9.030;2022-10-13T15:41:08;14.40;;;5.85;;
3953;SDS011;1991;48.682;9.030;2022-10-13T15:43:34;11.85;;;5.57;;
3953;SDS011;1991;48.682;9.030;2022-10-13T15:46:02;8.32;;;5.55;;
3953;SDS011;1991;48.682;9.030;2022-10-13T15:48:32;9.63;;;6.10;;
3953;SDS011;1991;48.682;9.030;2022-10-13T15:50:58;8.60;;;5.15;;
3953;SDS011;1991;48.682;9.030;2022-10-13T15:53:28;13.88;;;6.35;;
3953;SDS011;1991;48.682;9.030;2022-10-13T15:55:54;13.10;;;5.88;;
3953;SDS011;1991;48.682;9.030;2022-10-13T15:58:19;10.52;;;6.10;;
3953;SDS011;1991;48.682;9.030;2022-10-13T16:00:45;9.18;;;5.97;;
3953;SDS011;1991;48.682;9.030;2022-10-13T16:03:14;11.40;;;6.10;;
3953;SDS011;1991;48.682;9.030;2022-10-13T16:05:44;16.15;;;5.70;;
3953;SDS011;1991;48.682;9.030;2022-10-13T16:08:11;10.88;;;6.38;;
3953;SDS011;1991;48.682;9.030;2022-10-13T16:10:38;11.73;;;6.68;;
3953;SDS011;1991;48.682;9.030;2022-10-13T16:13:05;11.18;;;7.22;;
3953;SDS011;1991;48.682;9.030;2022-10-13T16:15:31;14.15;;;7.10;;
3953;SDS011;1991;48.682;9.030;2022-10-13T16:17:56;12.70;;;7.25;;
3953;SDS011;1991;48.682;9.030;2022-10-13T16:20:22;12.70;;;8.38;;
3953;SDS011;1991;48.682;9.030;2022-10-13T16:22:47;24.10;;;8.98;;
3953;SDS011;1991;48.682;9.030;2022-10-13T16:25:13;14.30;;;8.60;;
3953;SDS011;1991;48.682;9.030;2022-10-13T16:27:39;14.70;;;8.18;;
3953;SDS011;1991;48.682;9.030;2022-10-13T16:30:05;18.70;;;8.13;;
3953;SDS011;1991;48.682;9.030;2022-10-13T16:32:36;15.55;;;8.57;;
3953;SDS011;1991;48.682;9.030;2022-10-13T16:35:05;14.30;;;8.48;;
3953;SDS011;1991;48.682;9.030;2022-10-13T16:37:32;11.95;;;8.93;;
3953;SDS011;1991;48.682;9.030;2022-10-13T16:39:57;17.27;;;8.07;;